UAL154 PGUM-PTKK
Flight info
| Callsign | UAL154 |
|---|---|
| Flight time | 1h 25m |
| Altitude | 31000 |
| Route | GUNSS WUMVE |
| Aircraft | B738/M-SDE2E3FGHIRWXY/LB1 |
Departure
| Time | 2026-04-25 15:23 |
|---|---|
| Airport | Antonio B. Won Pat International Airport (PGUM) |
Arrival
| Time | 2026-04-25 16:49 |
|---|---|
| Airport | Chuuk International Airport (PTKK) |
| Time | Latitude | Longitude | Altitude | Speed | Heading |
|---|---|---|---|---|---|
| 2026-04-25 14:57 | 13.49161 | 144.80526 | 298 ft | 0 kts | 332° |
| 2026-04-25 15:10 | 13.49139 | 144.80538 | 298 ft | 3 kts | 332° |
| 2026-04-25 15:11 | 13.49121 | 144.80548 | 299 ft | 3 kts | 332° |
| 2026-04-25 15:11 | 13.49104 | 144.80557 | 298 ft | 3 kts | 324° |
| 2026-04-25 15:11 | 13.49091 | 144.80570 | 297 ft | 3 kts | 284° |
| 2026-04-25 15:12 | 13.49092 | 144.80591 | 298 ft | 1 kts | 245° |
| 2026-04-25 15:12 | 13.49085 | 144.80575 | 299 ft | 3 kts | 245° |
| 2026-04-25 15:12 | 13.49076 | 144.80557 | 299 ft | 3 kts | 243° |
| 2026-04-25 15:12 | 13.49073 | 144.80552 | 298 ft | 2 kts | 241° |
| 2026-04-25 15:13 | 13.49070 | 144.80548 | 298 ft | 1 kts | 239° |
| 2026-04-25 15:16 | 13.49052 | 144.80517 | 298 ft | 0 kts | 239° |
| 2026-04-25 15:17 | 13.49036 | 144.80486 | 297 ft | 6 kts | 242° |
| 2026-04-25 15:17 | 13.49010 | 144.80435 | 298 ft | 10 kts | 242° |
| 2026-04-25 15:17 | 13.48959 | 144.80387 | 293 ft | 11 kts | 187° |
| 2026-04-25 15:18 | 13.48909 | 144.80330 | 297 ft | 12 kts | 238° |
| 2026-04-25 15:18 | 13.48809 | 144.80137 | 292 ft | 18 kts | 245° |
| 2026-04-25 15:18 | 13.48750 | 144.80009 | 291 ft | 21 kts | 245° |
| 2026-04-25 15:19 | 13.48683 | 144.79862 | 291 ft | 24 kts | 245° |
| 2026-04-25 15:19 | 13.48658 | 144.79807 | 288 ft | 25 kts | 245° |
| 2026-04-25 15:19 | 13.48539 | 144.79547 | 286 ft | 25 kts | 244° |
| 2026-04-25 15:19 | 13.48464 | 144.79383 | 286 ft | 25 kts | 245° |
| 2026-04-25 15:20 | 13.48392 | 144.79225 | 286 ft | 25 kts | 245° |
| 2026-04-25 15:20 | 13.48315 | 144.79056 | 284 ft | 27 kts | 245° |
| 2026-04-25 15:20 | 13.48233 | 144.78877 | 285 ft | 28 kts | 245° |
| 2026-04-25 15:20 | 13.48152 | 144.78699 | 283 ft | 27 kts | 244° |
| 2026-04-25 15:21 | 13.48072 | 144.78528 | 282 ft | 27 kts | 246° |
| 2026-04-25 15:21 | 13.47990 | 144.78389 | 276 ft | 18 kts | 200° |
| 2026-04-25 15:21 | 13.47931 | 144.78481 | 267 ft | 13 kts | 65° |
| 2026-04-25 15:21 | 13.47933 | 144.78484 | 267 ft | 0 kts | 65° |
| 2026-04-25 15:22 | 13.47934 | 144.78486 | 267 ft | 1 kts | 65° |
| 2026-04-25 15:22 | 13.47990 | 144.78613 | 269 ft | 53 kts | 65° |
| 2026-04-25 15:23 | 13.48243 | 144.79165 | 275 ft | 118 kts | 65° |
| 2026-04-25 15:23 | 13.48671 | 144.80102 | 359 ft | 167 kts | 65° |
| 2026-04-25 15:23 | 13.49191 | 144.81251 | 859 ft | 187 kts | 65° |
| 2026-04-25 15:23 | 13.49811 | 144.82487 | 1371 ft | 200 kts | 57° |
| 2026-04-25 15:24 | 13.50340 | 144.83814 | 1930 ft | 210 kts | 85° |
| 2026-04-25 15:24 | 13.49893 | 144.85333 | 2097 ft | 244 kts | 123° |
| 2026-04-25 15:24 | 13.48537 | 144.86391 | 2588 ft | 232 kts | 145° |
| 2026-04-25 15:24 | 13.48078 | 144.86674 | 2696 ft | 226 kts | 143° |
| 2026-04-25 15:25 | 13.45884 | 144.88284 | 2847 ft | 247 kts | 140° |
| 2026-04-25 15:25 | 13.44472 | 144.89396 | 2975 ft | 265 kts | 139° |
| 2026-04-25 15:25 | 13.42970 | 144.90608 | 3236 ft | 281 kts | 139° |
| 2026-04-25 15:25 | 13.41429 | 144.91870 | 3814 ft | 285 kts | 138° |
| 2026-04-25 15:26 | 13.39879 | 144.93156 | 4461 ft | 287 kts | 137° |
| 2026-04-25 15:26 | 13.38324 | 144.94457 | 5108 ft | 289 kts | 138° |
| 2026-04-25 15:26 | 13.36763 | 144.95773 | 5695 ft | 293 kts | 138° |
| 2026-04-25 15:26 | 13.35178 | 144.97115 | 6253 ft | 298 kts | 139° |
| 2026-04-25 15:27 | 13.33565 | 144.98483 | 6801 ft | 302 kts | 139° |
| 2026-04-25 15:27 | 13.31933 | 144.99870 | 7354 ft | 307 kts | 139° |
| 2026-04-25 15:27 | 13.28588 | 145.02717 | 8522 ft | 316 kts | 138° |
| 2026-04-25 15:28 | 13.26874 | 145.04177 | 9079 ft | 323 kts | 139° |
| 2026-04-25 15:28 | 13.25130 | 145.05663 | 9656 ft | 330 kts | 138° |
| 2026-04-25 15:28 | 13.23377 | 145.07156 | 10313 ft | 330 kts | 139° |
| 2026-04-25 15:28 | 13.21607 | 145.08662 | 10985 ft | 333 kts | 139° |
| 2026-04-25 15:29 | 13.19814 | 145.10188 | 11605 ft | 335 kts | 140° |
| 2026-04-25 15:29 | 13.18015 | 145.11718 | 12285 ft | 337 kts | 141° |
| 2026-04-25 15:29 | 13.16202 | 145.13262 | 12963 ft | 339 kts | 141° |
| 2026-04-25 15:29 | 13.14390 | 145.14804 | 13721 ft | 338 kts | 143° |
| 2026-04-25 15:30 | 13.12573 | 145.16350 | 14338 ft | 340 kts | 142° |
| 2026-04-25 15:30 | 13.10741 | 145.17907 | 14948 ft | 343 kts | 142° |
| 2026-04-25 15:30 | 13.08896 | 145.19477 | 15552 ft | 346 kts | 141° |
| 2026-04-25 15:30 | 13.07161 | 145.21200 | 16151 ft | 350 kts | 133° |
| 2026-04-25 15:31 | 13.05577 | 145.23102 | 16787 ft | 351 kts | 130° |
| 2026-04-25 15:31 | 13.04035 | 145.25065 | 17374 ft | 354 kts | 129° |
| 2026-04-25 15:31 | 13.02514 | 145.27024 | 17934 ft | 358 kts | 129° |
| 2026-04-25 15:31 | 13.00954 | 145.29021 | 18533 ft | 358 kts | 129° |
| 2026-04-25 15:32 | 12.99381 | 145.31015 | 19045 ft | 361 kts | 129° |
| 2026-04-25 15:32 | 12.97792 | 145.33012 | 19530 ft | 364 kts | 129° |
| 2026-04-25 15:32 | 12.96173 | 145.35034 | 19978 ft | 368 kts | 129° |
| 2026-04-25 15:33 | 12.92880 | 145.39119 | 20941 ft | 373 kts | 129° |
| 2026-04-25 15:33 | 12.91218 | 145.41174 | 21445 ft | 375 kts | 129° |
| 2026-04-25 15:33 | 12.89542 | 145.43244 | 21872 ft | 380 kts | 129° |
| 2026-04-25 15:33 | 12.87844 | 145.45340 | 22290 ft | 384 kts | 129° |
| 2026-04-25 15:34 | 12.86129 | 145.47456 | 22732 ft | 387 kts | 129° |
| 2026-04-25 15:34 | 12.84989 | 145.48862 | 23047 ft | 388 kts | 129° |
| 2026-04-25 15:34 | 12.83256 | 145.50998 | 23517 ft | 391 kts | 128° |
| 2026-04-25 15:34 | 12.82102 | 145.52421 | 23754 ft | 393 kts | 129° |
| 2026-04-25 15:35 | 12.77974 | 145.57508 | 24540 ft | 401 kts | 129° |
| 2026-04-25 15:35 | 12.76183 | 145.59713 | 24887 ft | 404 kts | 129° |
| 2026-04-25 15:35 | 12.74377 | 145.61937 | 25206 ft | 408 kts | 129° |
| 2026-04-25 15:36 | 12.70719 | 145.66439 | 25891 ft | 414 kts | 130° |
| 2026-04-25 15:36 | 12.68869 | 145.68716 | 26202 ft | 417 kts | 130° |
| 2026-04-25 15:36 | 12.67004 | 145.71010 | 26494 ft | 422 kts | 130° |
| 2026-04-25 15:37 | 12.65101 | 145.73350 | 26545 ft | 433 kts | 130° |
| 2026-04-25 15:37 | 12.63152 | 145.75745 | 26648 ft | 441 kts | 130° |
| 2026-04-25 15:37 | 12.61192 | 145.78155 | 26688 ft | 450 kts | 130° |
| 2026-04-25 15:37 | 12.59172 | 145.80637 | 26753 ft | 458 kts | 130° |
| 2026-04-25 15:38 | 12.57112 | 145.83168 | 26822 ft | 465 kts | 130° |
| 2026-04-25 15:38 | 12.55019 | 145.85739 | 26881 ft | 472 kts | 130° |
| 2026-04-25 15:38 | 12.52902 | 145.88338 | 26922 ft | 478 kts | 130° |
| 2026-04-25 15:38 | 12.50754 | 145.90975 | 26968 ft | 484 kts | 130° |
| 2026-04-25 15:39 | 12.48583 | 145.93639 | 27018 ft | 489 kts | 130° |
| 2026-04-25 15:39 | 12.46397 | 145.96321 | 27082 ft | 493 kts | 130° |
| 2026-04-25 15:39 | 12.44187 | 145.99033 | 27115 ft | 497 kts | 130° |
| 2026-04-25 15:39 | 12.41965 | 146.01757 | 27184 ft | 501 kts | 130° |
| 2026-04-25 15:40 | 12.39751 | 146.04471 | 27262 ft | 503 kts | 130° |
| 2026-04-25 15:40 | 12.38236 | 146.06328 | 27397 ft | 503 kts | 130° |
| 2026-04-25 15:40 | 12.35271 | 146.09962 | 27706 ft | 502 kts | 130° |
| 2026-04-25 15:40 | 12.33027 | 146.12710 | 27800 ft | 504 kts | 131° |
| 2026-04-25 15:41 | 12.30775 | 146.15466 | 27967 ft | 504 kts | 131° |
| 2026-04-25 15:41 | 12.28533 | 146.18211 | 28340 ft | 501 kts | 131° |
| 2026-04-25 15:41 | 12.26302 | 146.20943 | 28548 ft | 501 kts | 131° |
| 2026-04-25 15:41 | 12.24056 | 146.23689 | 28618 ft | 505 kts | 131° |
| 2026-04-25 15:42 | 12.21801 | 146.26447 | 28841 ft | 503 kts | 131° |
| 2026-04-25 15:42 | 12.19568 | 146.29177 | 29289 ft | 499 kts | 131° |
| 2026-04-25 15:42 | 12.17342 | 146.31899 | 29496 ft | 500 kts | 131° |
| 2026-04-25 15:42 | 12.15102 | 146.34635 | 29538 ft | 504 kts | 131° |
| 2026-04-25 15:43 | 12.12849 | 146.37386 | 29664 ft | 506 kts | 131° |
| 2026-04-25 15:43 | 12.10591 | 146.40144 | 29954 ft | 504 kts | 131° |
| 2026-04-25 15:43 | 12.08351 | 146.42879 | 30243 ft | 502 kts | 131° |
| 2026-04-25 15:43 | 12.06105 | 146.45620 | 30408 ft | 503 kts | 131° |
| 2026-04-25 15:44 | 12.03855 | 146.48365 | 30527 ft | 504 kts | 131° |
| 2026-04-25 15:44 | 12.01629 | 146.51081 | 30755 ft | 503 kts | 131° |
| 2026-04-25 15:44 | 11.99383 | 146.53820 | 30950 ft | 503 kts | 131° |
| 2026-04-25 15:44 | 11.97129 | 146.56568 | 30932 ft | 505 kts | 131° |
| 2026-04-25 15:45 | 11.92616 | 146.62067 | 30934 ft | 504 kts | 131° |
| 2026-04-25 15:45 | 11.88872 | 146.66627 | 30938 ft | 504 kts | 131° |
| 2026-04-25 15:46 | 11.83629 | 146.73009 | 30939 ft | 504 kts | 131° |
| 2026-04-25 15:46 | 11.79122 | 146.78492 | 30937 ft | 504 kts | 131° |
| 2026-04-25 15:47 | 11.74607 | 146.83982 | 30936 ft | 505 kts | 131° |
| 2026-04-25 15:47 | 11.70087 | 146.89473 | 30933 ft | 505 kts | 131° |
| 2026-04-25 15:48 | 11.65566 | 146.94964 | 30932 ft | 506 kts | 131° |
| 2026-04-25 15:48 | 11.61038 | 147.00460 | 30928 ft | 506 kts | 131° |
| 2026-04-25 15:49 | 11.56504 | 147.05960 | 30934 ft | 507 kts | 131° |
| 2026-04-25 15:49 | 11.51965 | 147.11464 | 30927 ft | 507 kts | 131° |
| 2026-04-25 15:50 | 11.47452 | 147.16932 | 30929 ft | 507 kts | 131° |
| 2026-04-25 15:50 | 11.42910 | 147.22434 | 30923 ft | 507 kts | 131° |
| 2026-04-25 15:51 | 11.39132 | 147.27006 | 30922 ft | 507 kts | 131° |
| 2026-04-25 15:51 | 11.33825 | 147.33427 | 30921 ft | 507 kts | 131° |
| 2026-04-25 15:52 | 11.29276 | 147.38927 | 30922 ft | 507 kts | 131° |
| 2026-04-25 15:52 | 11.24757 | 147.44389 | 30921 ft | 507 kts | 131° |
| 2026-04-25 15:53 | 11.20208 | 147.49883 | 30925 ft | 506 kts | 131° |
| 2026-04-25 15:53 | 11.15663 | 147.55370 | 30918 ft | 506 kts | 131° |
| 2026-04-25 15:54 | 11.11117 | 147.60855 | 30915 ft | 506 kts | 131° |
| 2026-04-25 15:54 | 11.06593 | 147.66311 | 30916 ft | 506 kts | 131° |
| 2026-04-25 15:55 | 11.02047 | 147.71790 | 30922 ft | 506 kts | 131° |
| 2026-04-25 15:55 | 10.97505 | 147.77262 | 30913 ft | 506 kts | 131° |
| 2026-04-25 15:56 | 10.92960 | 147.82735 | 30913 ft | 506 kts | 131° |
| 2026-04-25 15:56 | 10.88412 | 147.88208 | 30912 ft | 506 kts | 131° |
| 2026-04-25 15:57 | 10.83894 | 147.93643 | 30913 ft | 506 kts | 131° |
| 2026-04-25 15:57 | 10.79352 | 147.99104 | 30912 ft | 504 kts | 131° |
| 2026-04-25 15:58 | 10.74823 | 148.04548 | 30903 ft | 504 kts | 131° |
| 2026-04-25 15:58 | 10.70280 | 148.09962 | 30915 ft | 502 kts | 132° |
| 2026-04-25 15:59 | 10.65684 | 148.15328 | 30904 ft | 502 kts | 132° |
| 2026-04-25 15:59 | 10.61115 | 148.20649 | 30911 ft | 502 kts | 132° |
| 2026-04-25 16:00 | 10.58050 | 148.24225 | 30901 ft | 502 kts | 132° |
| 2026-04-25 16:00 | 10.51953 | 148.31351 | 30908 ft | 501 kts | 132° |
| 2026-04-25 16:01 | 10.47374 | 148.36703 | 30905 ft | 502 kts | 132° |
| 2026-04-25 16:01 | 10.42789 | 148.42060 | 30905 ft | 502 kts | 132° |
| 2026-04-25 16:02 | 10.38190 | 148.47428 | 30910 ft | 505 kts | 132° |
| 2026-04-25 16:02 | 10.33558 | 148.52832 | 30905 ft | 508 kts | 132° |
| 2026-04-25 16:03 | 10.28913 | 148.58249 | 30897 ft | 508 kts | 132° |
| 2026-04-25 16:03 | 10.24270 | 148.63663 | 30895 ft | 509 kts | 132° |
| 2026-04-25 16:04 | 10.19653 | 148.69041 | 30900 ft | 508 kts | 132° |
| 2026-04-25 16:04 | 10.15002 | 148.74459 | 30892 ft | 508 kts | 132° |
| 2026-04-25 16:05 | 10.10358 | 148.79864 | 30901 ft | 507 kts | 132° |
| 2026-04-25 16:06 | 10.03397 | 148.87962 | 30892 ft | 507 kts | 132° |
| 2026-04-25 16:06 | 9.98791 | 148.93318 | 30895 ft | 506 kts | 132° |
| 2026-04-25 16:07 | 9.94149 | 148.98711 | 30885 ft | 507 kts | 132° |
| 2026-04-25 16:07 | 9.89516 | 149.04093 | 30901 ft | 506 kts | 132° |
| 2026-04-25 16:08 | 9.84878 | 149.09478 | 30887 ft | 506 kts | 132° |
| 2026-04-25 16:08 | 9.80236 | 149.14864 | 30894 ft | 506 kts | 132° |
| 2026-04-25 16:09 | 9.75630 | 149.20207 | 30888 ft | 506 kts | 132° |
| 2026-04-25 16:09 | 9.71006 | 149.25568 | 30890 ft | 504 kts | 132° |
| 2026-04-25 16:10 | 9.66390 | 149.30918 | 30882 ft | 503 kts | 132° |
| 2026-04-25 16:10 | 9.61776 | 149.36262 | 30886 ft | 503 kts | 132° |
| 2026-04-25 16:11 | 9.57169 | 149.41596 | 30892 ft | 502 kts | 132° |
| 2026-04-25 16:11 | 9.52591 | 149.46894 | 30883 ft | 503 kts | 132° |
| 2026-04-25 16:12 | 9.47983 | 149.52225 | 30887 ft | 502 kts | 132° |
| 2026-04-25 16:12 | 9.43381 | 149.57546 | 30881 ft | 502 kts | 132° |
| 2026-04-25 16:13 | 9.38780 | 149.62863 | 30887 ft | 502 kts | 132° |
| 2026-04-25 16:13 | 9.34171 | 149.68188 | 30880 ft | 502 kts | 132° |
| 2026-04-25 16:14 | 9.29600 | 149.73466 | 30884 ft | 502 kts | 132° |
| 2026-04-25 16:14 | 9.24998 | 149.78778 | 30883 ft | 502 kts | 132° |
| 2026-04-25 16:15 | 9.20387 | 149.84098 | 30877 ft | 501 kts | 132° |
| 2026-04-25 16:15 | 9.15817 | 149.89370 | 30873 ft | 493 kts | 132° |
| 2026-04-25 16:16 | 9.11299 | 149.94578 | 30881 ft | 490 kts | 132° |
| 2026-04-25 16:16 | 9.06825 | 149.99733 | 30881 ft | 490 kts | 132° |
| 2026-04-25 16:17 | 9.02316 | 150.04926 | 30878 ft | 490 kts | 132° |
| 2026-04-25 16:17 | 8.97812 | 150.10111 | 30881 ft | 491 kts | 132° |
| 2026-04-25 16:18 | 8.93299 | 150.15306 | 30882 ft | 491 kts | 132° |
| 2026-04-25 16:18 | 8.88805 | 150.20476 | 30878 ft | 493 kts | 132° |
| 2026-04-25 16:19 | 8.84269 | 150.25691 | 30879 ft | 492 kts | 131° |
| 2026-04-25 16:19 | 8.79767 | 150.30868 | 30856 ft | 482 kts | 132° |
| 2026-04-25 16:20 | 8.76333 | 150.34815 | 30853 ft | 454 kts | 132° |
| 2026-04-25 16:21 | 8.75091 | 150.36240 | 30686 ft | 449 kts | 132° |
| 2026-04-25 16:22 | 8.73733 | 150.37795 | 30567 ft | 442 kts | 132° |
| 2026-04-25 16:22 | 8.71711 | 150.40112 | 30251 ft | 436 kts | 132° |
| 2026-04-25 16:22 | 8.69711 | 150.42405 | 29860 ft | 433 kts | 132° |
| 2026-04-25 16:22 | 8.67726 | 150.44684 | 29406 ft | 430 kts | 132° |
| 2026-04-25 16:23 | 8.65758 | 150.46943 | 28958 ft | 427 kts | 132° |
| 2026-04-25 16:23 | 8.63801 | 150.49189 | 28520 ft | 424 kts | 132° |
| 2026-04-25 16:23 | 8.61859 | 150.51418 | 28093 ft | 420 kts | 132° |
| 2026-04-25 16:23 | 8.59934 | 150.53627 | 27671 ft | 417 kts | 132° |
| 2026-04-25 16:24 | 8.58022 | 150.55820 | 27246 ft | 414 kts | 131° |
| 2026-04-25 16:24 | 8.56124 | 150.57997 | 26834 ft | 411 kts | 131° |
| 2026-04-25 16:24 | 8.54236 | 150.60162 | 26419 ft | 409 kts | 131° |
| 2026-04-25 16:24 | 8.52368 | 150.62303 | 26075 ft | 404 kts | 131° |
| 2026-04-25 16:25 | 8.50533 | 150.64407 | 25595 ft | 404 kts | 131° |
| 2026-04-25 16:25 | 8.49282 | 150.65841 | 25340 ft | 402 kts | 131° |
| 2026-04-25 16:25 | 8.46835 | 150.68646 | 24775 ft | 400 kts | 131° |
| 2026-04-25 16:25 | 8.44999 | 150.70749 | 24363 ft | 398 kts | 131° |
| 2026-04-25 16:26 | 8.43170 | 150.72844 | 23959 ft | 397 kts | 130° |
| 2026-04-25 16:26 | 8.41349 | 150.74930 | 23539 ft | 395 kts | 130° |
| 2026-04-25 16:26 | 8.39531 | 150.77012 | 23076 ft | 393 kts | 130° |
| 2026-04-25 16:26 | 8.37729 | 150.79076 | 22642 ft | 390 kts | 130° |
| 2026-04-25 16:27 | 8.35941 | 150.81123 | 22217 ft | 387 kts | 130° |
| 2026-04-25 16:27 | 8.34167 | 150.83155 | 21819 ft | 384 kts | 130° |
| 2026-04-25 16:27 | 8.32408 | 150.85168 | 21425 ft | 380 kts | 130° |
| 2026-04-25 16:27 | 8.30666 | 150.87162 | 21030 ft | 377 kts | 130° |
| 2026-04-25 16:28 | 8.28937 | 150.89140 | 20649 ft | 374 kts | 130° |
| 2026-04-25 16:28 | 8.27240 | 150.91082 | 20258 ft | 372 kts | 130° |
| 2026-04-25 16:28 | 8.25535 | 150.93032 | 19878 ft | 369 kts | 130° |
| 2026-04-25 16:28 | 8.23841 | 150.94970 | 19489 ft | 367 kts | 130° |
| 2026-04-25 16:29 | 8.22156 | 150.96898 | 19122 ft | 365 kts | 130° |
| 2026-04-25 16:29 | 8.20481 | 150.98813 | 18729 ft | 363 kts | 130° |
| 2026-04-25 16:29 | 8.18809 | 151.00725 | 18351 ft | 361 kts | 130° |
| 2026-04-25 16:29 | 8.17145 | 151.02628 | 17924 ft | 361 kts | 130° |
| 2026-04-25 16:30 | 8.16045 | 151.03885 | 17652 ft | 359 kts | 130° |
| 2026-04-25 16:30 | 8.13864 | 151.06377 | 17133 ft | 355 kts | 130° |
| 2026-04-25 16:30 | 8.12234 | 151.08241 | 16751 ft | 352 kts | 130° |
| 2026-04-25 16:30 | 8.10618 | 151.10087 | 16379 ft | 350 kts | 130° |
| 2026-04-25 16:31 | 8.09015 | 151.11919 | 16018 ft | 347 kts | 130° |
| 2026-04-25 16:31 | 8.07420 | 151.13741 | 15649 ft | 344 kts | 130° |
| 2026-04-25 16:31 | 8.05839 | 151.15547 | 15287 ft | 342 kts | 130° |
| 2026-04-25 16:31 | 8.04270 | 151.17338 | 14927 ft | 340 kts | 130° |
| 2026-04-25 16:32 | 8.02709 | 151.19122 | 14570 ft | 338 kts | 130° |
| 2026-04-25 16:32 | 8.01159 | 151.20891 | 14214 ft | 336 kts | 130° |
| 2026-04-25 16:32 | 7.99614 | 151.22656 | 13855 ft | 334 kts | 130° |
| 2026-04-25 16:32 | 7.98077 | 151.24410 | 13485 ft | 332 kts | 130° |
| 2026-04-25 16:33 | 7.96550 | 151.26153 | 13090 ft | 330 kts | 130° |
| 2026-04-25 16:33 | 7.95032 | 151.27886 | 12719 ft | 328 kts | 130° |
| 2026-04-25 16:33 | 7.93527 | 151.29603 | 12360 ft | 326 kts | 130° |
| 2026-04-25 16:33 | 7.92031 | 151.31311 | 12012 ft | 323 kts | 130° |
| 2026-04-25 16:34 | 7.90548 | 151.33003 | 11659 ft | 321 kts | 130° |
| 2026-04-25 16:34 | 7.89095 | 151.34662 | 11318 ft | 319 kts | 130° |
| 2026-04-25 16:34 | 7.87631 | 151.36333 | 10972 ft | 317 kts | 130° |
| 2026-04-25 16:34 | 7.86177 | 151.37993 | 10632 ft | 315 kts | 130° |
| 2026-04-25 16:35 | 7.84729 | 151.39645 | 10368 ft | 311 kts | 130° |
| 2026-04-25 16:35 | 7.83320 | 151.41253 | 10230 ft | 302 kts | 130° |
| 2026-04-25 16:35 | 7.81946 | 151.42819 | 10096 ft | 294 kts | 130° |
| 2026-04-25 16:35 | 7.80608 | 151.44342 | 9966 ft | 286 kts | 130° |
| 2026-04-25 16:36 | 7.79296 | 151.45817 | 9783 ft | 281 kts | 133° |
| 2026-04-25 16:36 | 7.78827 | 151.46247 | 9680 ft | 282 kts | 141° |
| 2026-04-25 16:36 | 7.75910 | 151.47675 | 9292 ft | 279 kts | 154° |
| 2026-04-25 16:36 | 7.74138 | 151.48452 | 9028 ft | 277 kts | 154° |
| 2026-04-25 16:37 | 7.72376 | 151.49225 | 8746 ft | 276 kts | 154° |
| 2026-04-25 16:37 | 7.70644 | 151.49987 | 8475 ft | 274 kts | 154° |
| 2026-04-25 16:37 | 7.68898 | 151.50759 | 8198 ft | 273 kts | 154° |
| 2026-04-25 16:37 | 7.67160 | 151.51530 | 7931 ft | 272 kts | 154° |
| 2026-04-25 16:38 | 7.65431 | 151.52298 | 7670 ft | 271 kts | 154° |
| 2026-04-25 16:38 | 7.63705 | 151.53065 | 7384 ft | 270 kts | 154° |
| 2026-04-25 16:38 | 7.61985 | 151.53831 | 7112 ft | 270 kts | 154° |
| 2026-04-25 16:38 | 7.60270 | 151.54595 | 6840 ft | 269 kts | 154° |
| 2026-04-25 16:39 | 7.58556 | 151.55358 | 6566 ft | 268 kts | 154° |
| 2026-04-25 16:39 | 7.56875 | 151.56107 | 6463 ft | 257 kts | 154° |
| 2026-04-25 16:39 | 7.55309 | 151.56803 | 6380 ft | 241 kts | 154° |
| 2026-04-25 16:39 | 7.53831 | 151.57461 | 6272 ft | 223 kts | 154° |
| 2026-04-25 16:40 | 7.52470 | 151.58066 | 6134 ft | 205 kts | 153° |
| 2026-04-25 16:40 | 7.51216 | 151.58625 | 5997 ft | 190 kts | 153° |
| 2026-04-25 16:40 | 7.50020 | 151.59159 | 5731 ft | 187 kts | 153° |
| 2026-04-25 16:40 | 7.48824 | 151.59694 | 5471 ft | 188 kts | 153° |
| 2026-04-25 16:41 | 7.47639 | 151.60222 | 5225 ft | 183 kts | 153° |
| 2026-04-25 16:41 | 7.46855 | 151.60572 | 4885 ft | 190 kts | 153° |
| 2026-04-25 16:41 | 7.44105 | 151.61795 | 4308 ft | 177 kts | 153° |
| 2026-04-25 16:42 | 7.43044 | 151.62409 | 4167 ft | 176 kts | 134° |
| 2026-04-25 16:42 | 7.42171 | 151.63287 | 4046 ft | 181 kts | 133° |
| 2026-04-25 16:42 | 7.41255 | 151.64184 | 3864 ft | 184 kts | 133° |
| 2026-04-25 16:42 | 7.40350 | 151.65064 | 3770 ft | 178 kts | 134° |
| 2026-04-25 16:43 | 7.39467 | 151.65922 | 3673 ft | 175 kts | 134° |
| 2026-04-25 16:43 | 7.38589 | 151.66774 | 3603 ft | 177 kts | 134° |
| 2026-04-25 16:43 | 7.37694 | 151.67641 | 3551 ft | 178 kts | 134° |
| 2026-04-25 16:43 | 7.36812 | 151.68495 | 3460 ft | 174 kts | 134° |
| 2026-04-25 16:44 | 7.35955 | 151.69323 | 3386 ft | 172 kts | 134° |
| 2026-04-25 16:44 | 7.35112 | 151.70139 | 3294 ft | 165 kts | 133° |
| 2026-04-25 16:44 | 7.34499 | 151.71059 | 3088 ft | 155 kts | 96° |
| 2026-04-25 16:44 | 7.34815 | 151.72054 | 2990 ft | 156 kts | 54° |
| 2026-04-25 16:45 | 7.35493 | 151.72944 | 2789 ft | 162 kts | 54° |
| 2026-04-25 16:45 | 7.36163 | 151.73821 | 2650 ft | 154 kts | 53° |
| 2026-04-25 16:45 | 7.36877 | 151.74633 | 2485 ft | 156 kts | 49° |
| 2026-04-25 16:45 | 7.37624 | 151.75417 | 2298 ft | 154 kts | 48° |
| 2026-04-25 16:46 | 7.38363 | 151.76184 | 2086 ft | 151 kts | 49° |
| 2026-04-25 16:46 | 7.39092 | 151.76940 | 1893 ft | 151 kts | 48° |
| 2026-04-25 16:46 | 7.39832 | 151.77707 | 1685 ft | 153 kts | 49° |
| 2026-04-25 16:46 | 7.40081 | 151.77965 | 1624 ft | 152 kts | 49° |
| 2026-04-25 16:47 | 7.41266 | 151.79193 | 1284 ft | 141 kts | 49° |
| 2026-04-25 16:47 | 7.41939 | 151.79891 | 1103 ft | 138 kts | 48° |
| 2026-04-25 16:47 | 7.42614 | 151.80587 | 935 ft | 140 kts | 47° |
| 2026-04-25 16:47 | 7.43294 | 151.81302 | 756 ft | 141 kts | 50° |
| 2026-04-25 16:48 | 7.43958 | 151.82030 | 551 ft | 142 kts | 46° |
| 2026-04-25 16:48 | 7.44641 | 151.82710 | 308 ft | 136 kts | 46° |
| 2026-04-25 16:48 | 7.45298 | 151.83386 | 123 ft | 134 kts | 47° |
| 2026-04-25 16:48 | 7.45941 | 151.84049 | 11 ft | 115 kts | 45° |
| 2026-04-25 16:49 | 7.46275 | 151.84393 | 5 ft | 36 kts | 46° |
| 2026-04-25 16:49 | 7.46355 | 151.84477 | 5 ft | 11 kts | 46° |
| 2026-04-25 16:49 | 7.46407 | 151.84530 | 6 ft | 10 kts | 45° |
| 2026-04-25 16:49 | 7.46453 | 151.84577 | 7 ft | 9 kts | 45° |
| 2026-04-25 16:50 | 7.46497 | 151.84623 | 7 ft | 9 kts | 45° |
| 2026-04-25 16:50 | 7.46539 | 151.84668 | 7 ft | 8 kts | 57° |
| 2026-04-25 16:50 | 7.46551 | 151.84694 | 7 ft | 1 kts | 21° |
| 2026-04-25 16:50 | 7.46553 | 151.84693 | 7 ft | 0 kts | 6° |
| 2026-04-25 16:51 | 7.46565 | 151.84690 | 7 ft | 0 kts | 340° |
| 2026-04-25 16:51 | 7.46566 | 151.84686 | 7 ft | 1 kts | 298° |
| 2026-04-25 16:51 | 7.46562 | 151.84681 | 7 ft | 1 kts | 231° |
| 2026-04-25 16:51 | 7.46555 | 151.84675 | 10 ft | 6 kts | 218° |
| 2026-04-25 16:52 | 7.46131 | 151.84247 | 7 ft | 95 kts | 226° |
| 2026-04-25 16:52 | 7.45947 | 151.84056 | 11 ft | 8 kts | 224° |
| 2026-04-25 16:52 | 7.45897 | 151.84040 | 11 ft | 8 kts | 164° |
| 2026-04-25 16:52 | 7.45857 | 151.84074 | 12 ft | 7 kts | 130° |
| 2026-04-25 16:53 | 7.45835 | 151.84156 | 13 ft | 0 kts | 157° |
| 2026-04-25 16:53 | 7.45825 | 151.84154 | 13 ft | 4 kts | 200° |
| 2026-04-25 16:54 | 7.45818 | 151.84144 | 14 ft | 0 kts | 249° |